logo
Rechercher aéroport 
image banner adimage banner adimage banner ad
image banner ad

YSRL - Sorell

Situé à Sorell, Australia

ICAO - , IATA -

Données fournies par Airmate  

Information générale

Coordonnées: S42°47'2" E147°33'36"
Élévation : 55 feet MSL.
Variation magnétique : 15° East
Voir autres Aéroports à Tasmania

Données opérationnelles

Special qualification required
Heure actuelle UTC:
Heure actuelle locale:
Météo à : YMHB - Hobart ( 7 km )
METAR: YMHB 220730Z 32005KT 9999 FEW030 SCT048 13/06 Q1023 RF00.0/000.0
Voir NOTAMs / SUP AIP / TFR affectant cet aéroport [VIEW]
Fréquences de communication: [VIEW]

Pistes:

Coordonnées de l'aéroport

Adresse: Sorell Australia

Vue satellite de YSRL